sensor_id;sensor_type;location;lat;lon;timestamp;temperature;humidity
42755;DHT22;28407;51.830;5.684;2023-08-31T00:01:49;16.30;73.10
42755;DHT22;28407;51.830;5.684;2023-08-31T00:03:49;16.30;73.10
42755;DHT22;28407;51.830;5.684;2023-08-31T00:05:50;16.30;73.10
42755;DHT22;28407;51.830;5.684;2023-08-31T00:07:51;16.30;73.10
42755;DHT22;28407;51.830;5.684;2023-08-31T00:09:52;16.30;73.10
42755;DHT22;28407;51.830;5.684;2023-08-31T00:11:53;16.20;73.10
42755;DHT22;28407;51.830;5.684;2023-08-31T00:13:53;16.20;73.10
42755;DHT22;28407;51.830;5.684;2023-08-31T00:15:57;16.20;73.20
42755;DHT22;28407;51.830;5.684;2023-08-31T00:17:59;16.20;73.20
42755;DHT22;28407;51.830;5.684;2023-08-31T00:19:59;16.20;73.20
42755;DHT22;28407;51.830;5.684;2023-08-31T00:22:00;16.20;73.20
42755;DHT22;28407;51.830;5.684;2023-08-31T00:24:01;16.10;73.10
42755;DHT22;28407;51.830;5.684;2023-08-31T00:26:01;16.10;73.20
42755;DHT22;28407;51.830;5.684;2023-08-31T00:28:02;16.10;73.20
42755;DHT22;28407;51.830;5.684;2023-08-31T00:30:05;16.10;73.20
42755;DHT22;28407;51.830;5.684;2023-08-31T00:32:08;16.10;73.20
42755;DHT22;28407;51.830;5.684;2023-08-31T00:34:09;16.10;73.30
42755;DHT22;28407;51.830;5.684;2023-08-31T00:36:12;16.00;73.30
42755;DHT22;28407;51.830;5.684;2023-08-31T00:38:14;16.00;73.40
42755;DHT22;28407;51.830;5.684;2023-08-31T00:40:16;15.90;73.30
42755;DHT22;28407;51.830;5.684;2023-08-31T00:42:16;15.90;73.40
42755;DHT22;28407;51.830;5.684;2023-08-31T00:44:18;15.90;73.50
42755;DHT22;28407;51.830;5.684;2023-08-31T00:46:22;15.90;73.50
42755;DHT22;28407;51.830;5.684;2023-08-31T00:48:23;15.90;73.50
42755;DHT22;28407;51.830;5.684;2023-08-31T00:50:24;15.90;73.50
42755;DHT22;28407;51.830;5.684;2023-08-31T00:52:25;15.90;73.60
42755;DHT22;28407;51.830;5.684;2023-08-31T00:54:26;15.80;73.60
42755;DHT22;28407;51.830;5.684;2023-08-31T00:56:29;15.80;73.60
42755;DHT22;28407;51.830;5.684;2023-08-31T00:58:29;15.80;73.70
42755;DHT22;28407;51.830;5.684;2023-08-31T01:00:40;15.80;73.60
42755;DHT22;28407;51.830;5.684;2023-08-31T01:05:28;15.80;73.70
42755;DHT22;28407;51.830;5.684;2023-08-31T01:07:48;15.70;73.80
42755;DHT22;28407;51.830;5.684;2023-08-31T01:10:07;15.70;73.70
42755;DHT22;28407;51.830;5.684;2023-08-31T01:12:15;15.70;73.90
42755;DHT22;28407;51.830;5.684;2023-08-31T01:14:23;15.70;73.90
42755;DHT22;28407;51.830;5.684;2023-08-31T01:16:26;15.60;73.90
42755;DHT22;28407;51.830;5.684;2023-08-31T01:18:27;15.60;73.90
42755;DHT22;28407;51.830;5.684;2023-08-31T01:20:38;15.60;73.90
42755;DHT22;28407;51.830;5.684;2023-08-31T01:22:58;15.60;73.90
42755;DHT22;28407;51.830;5.684;2023-08-31T01:25:01;15.60;74.00
42755;DHT22;28407;51.830;5.684;2023-08-31T01:27:05;15.60;74.00
42755;DHT22;28407;51.830;5.684;2023-08-31T01:29:05;15.60;74.10
42755;DHT22;28407;51.830;5.684;2023-08-31T01:31:06;15.70;74.10
42755;DHT22;28407;51.830;5.684;2023-08-31T01:33:07;15.70;74.20
42755;DHT22;28407;51.830;5.684;2023-08-31T01:35:08;15.60;74.20
42755;DHT22;28407;51.830;5.684;2023-08-31T01:37:15;15.70;74.30
42755;DHT22;28407;51.830;5.684;2023-08-31T01:39:23;15.70;74.30
42755;DHT22;28407;51.830;5.684;2023-08-31T01:41:26;15.70;74.30
42755;DHT22;28407;51.830;5.684;2023-08-31T01:43:31;15.70;74.30
42755;DHT22;28407;51.830;5.684;2023-08-31T01:45:35;15.70;74.30
42755;DHT22;28407;51.830;5.684;2023-08-31T01:47:36;15.70;74.30
42755;DHT22;28407;51.830;5.684;2023-08-31T01:49:40;15.70;74.40
42755;DHT22;28407;51.830;5.684;2023-08-31T01:51:40;15.70;74.50
42755;DHT22;28407;51.830;5.684;2023-08-31T01:53:41;15.70;74.50
42755;DHT22;28407;51.830;5.684;2023-08-31T01:55:41;15.80;74.60
42755;DHT22;28407;51.830;5.684;2023-08-31T01:57:42;15.80;74.70
42755;DHT22;28407;51.830;5.684;2023-08-31T01:59:47;15.80;74.60
42755;DHT22;28407;51.830;5.684;2023-08-31T02:01:48;15.80;74.70
42755;DHT22;28407;51.830;5.684;2023-08-31T02:03:48;15.80;74.80
42755;DHT22;28407;51.830;5.684;2023-08-31T02:05:49;15.80;74.80
42755;DHT22;28407;51.830;5.684;2023-08-31T02:07:50;15.80;74.80
42755;DHT22;28407;51.830;5.684;2023-08-31T02:09:50;15.80;74.90
42755;DHT22;28407;51.830;5.684;2023-08-31T02:11:51;15.80;74.90
42755;DHT22;28407;51.830;5.684;2023-08-31T02:13:52;15.80;74.90
42755;DHT22;28407;51.830;5.684;2023-08-31T02:15:53;15.90;75.00
42755;DHT22;28407;51.830;5.684;2023-08-31T02:17:54;15.80;75.00
42755;DHT22;28407;51.830;5.684;2023-08-31T02:19:55;15.90;75.10
42755;DHT22;28407;51.830;5.684;2023-08-31T02:21:56;15.90;75.10
42755;DHT22;28407;51.830;5.684;2023-08-31T02:23:56;15.80;75.10
42755;DHT22;28407;51.830;5.684;2023-08-31T02:25:57;15.90;75.20
42755;DHT22;28407;51.830;5.684;2023-08-31T02:27:58;15.90;75.20
42755;DHT22;28407;51.830;5.684;2023-08-31T02:29:58;15.90;75.30
42755;DHT22;28407;51.830;5.684;2023-08-31T02:32:04;15.90;75.30
42755;DHT22;28407;51.830;5.684;2023-08-31T02:34:05;15.90;75.40
42755;DHT22;28407;51.830;5.684;2023-08-31T02:36:06;15.90;75.30
42755;DHT22;28407;51.830;5.684;2023-08-31T02:38:06;15.90;75.30
42755;DHT22;28407;51.830;5.684;2023-08-31T02:40:07;15.90;75.40
42755;DHT22;28407;51.830;5.684;2023-08-31T02:42:10;15.90;75.40
42755;DHT22;28407;51.830;5.684;2023-08-31T02:44:11;15.80;75.40
42755;DHT22;28407;51.830;5.684;2023-08-31T02:46:12;15.80;75.50
42755;DHT22;28407;51.830;5.684;2023-08-31T02:48:13;15.90;75.60
42755;DHT22;28407;51.830;5.684;2023-08-31T02:50:13;15.80;75.50
42755;DHT22;28407;51.830;5.684;2023-08-31T02:52:14;15.80;75.50
42755;DHT22;28407;51.830;5.684;2023-08-31T02:54:15;15.80;75.60
42755;DHT22;28407;51.830;5.684;2023-08-31T02:56:16;15.90;75.60
42755;DHT22;28407;51.830;5.684;2023-08-31T02:58:16;15.90;75.60
42755;DHT22;28407;51.830;5.684;2023-08-31T03:00:17;15.90;75.70
42755;DHT22;28407;51.830;5.684;2023-08-31T03:02:22;15.90;75.70
42755;DHT22;28407;51.830;5.684;2023-08-31T03:04:22;15.90;75.70
42755;DHT22;28407;51.830;5.684;2023-08-31T03:06:24;15.90;75.80
42755;DHT22;28407;51.830;5.684;2023-08-31T03:08:24;15.90;75.80
42755;DHT22;28407;51.830;5.684;2023-08-31T03:10:25;15.90;75.80
42755;DHT22;28407;51.830;5.684;2023-08-31T03:12:25;15.90;75.90
42755;DHT22;28407;51.830;5.684;2023-08-31T03:14:28;15.80;75.90
42755;DHT22;28407;51.830;5.684;2023-08-31T03:16:30;15.80;76.00
42755;DHT22;28407;51.830;5.684;2023-08-31T03:18:31;15.90;76.10
42755;DHT22;28407;51.830;5.684;2023-08-31T03:20:32;15.90;76.10
42755;DHT22;28407;51.830;5.684;2023-08-31T03:22:33;15.90;76.10
42755;DHT22;28407;51.830;5.684;2023-08-31T03:24:34;15.90;76.10
42755;DHT22;28407;51.830;5.684;2023-08-31T03:26:34;15.90;76.10
42755;DHT22;28407;51.830;5.684;2023-08-31T03:28:35;15.90;76.20
42755;DHT22;28407;51.830;5.684;2023-08-31T03:30:36;15.90;76.20
42755;DHT22;28407;51.830;5.684;2023-08-31T03:32:37;15.90;76.30
42755;DHT22;28407;51.830;5.684;2023-08-31T03:34:37;15.90;76.20
42755;DHT22;28407;51.830;5.684;2023-08-31T03:36:38;15.90;76.30
42755;DHT22;28407;51.830;5.684;2023-08-31T03:38:39;15.80;76.30
42755;DHT22;28407;51.830;5.684;2023-08-31T03:40:40;15.80;76.40
42755;DHT22;28407;51.830;5.684;2023-08-31T03:42:41;15.80;76.40
42755;DHT22;28407;51.830;5.684;2023-08-31T03:44:42;15.90;76.50
42755;DHT22;28407;51.830;5.684;2023-08-31T03:46:43;15.80;76.50
42755;DHT22;28407;51.830;5.684;2023-08-31T03:48:44;15.80;76.50
42755;DHT22;28407;51.830;5.684;2023-08-31T03:50:49;15.90;76.60
42755;DHT22;28407;51.830;5.684;2023-08-31T03:52:50;15.80;76.60
42755;DHT22;28407;51.830;5.684;2023-08-31T03:54:51;15.80;76.70
42755;DHT22;28407;51.830;5.684;2023-08-31T03:56:53;15.80;76.80
42755;DHT22;28407;51.830;5.684;2023-08-31T03:58:54;15.80;76.80
42755;DHT22;28407;51.830;5.684;2023-08-31T04:00:55;15.80;76.80
42755;DHT22;28407;51.830;5.684;2023-08-31T04:02:55;15.80;76.90
42755;DHT22;28407;51.830;5.684;2023-08-31T04:04:57;15.80;76.80
42755;DHT22;28407;51.830;5.684;2023-08-31T04:06:58;15.80;76.80
42755;DHT22;28407;51.830;5.684;2023-08-31T04:08:59;15.80;76.90
42755;DHT22;28407;51.830;5.684;2023-08-31T04:11:00;15.80;77.00
42755;DHT22;28407;51.830;5.684;2023-08-31T04:13:01;15.80;77.00
42755;DHT22;28407;51.830;5.684;2023-08-31T04:15:03;15.80;77.00
42755;DHT22;28407;51.830;5.684;2023-08-31T04:17:04;15.80;77.00
42755;DHT22;28407;51.830;5.684;2023-08-31T04:19:05;15.80;77.10
42755;DHT22;28407;51.830;5.684;2023-08-31T04:21:08;15.70;77.10
42755;DHT22;28407;51.830;5.684;2023-08-31T04:23:09;15.70;77.10
42755;DHT22;28407;51.830;5.684;2023-08-31T04:25:09;15.70;77.20
42755;DHT22;28407;51.830;5.684;2023-08-31T04:27:10;15.70;77.20
42755;DHT22;28407;51.830;5.684;2023-08-31T04:29:11;15.70;77.30
42755;DHT22;28407;51.830;5.684;2023-08-31T04:31:11;15.70;77.40
42755;DHT22;28407;51.830;5.684;2023-08-31T04:33:12;15.60;77.40
42755;DHT22;28407;51.830;5.684;2023-08-31T04:35:13;15.60;77.40
42755;DHT22;28407;51.830;5.684;2023-08-31T04:37:13;15.60;77.40
42755;DHT22;28407;51.830;5.684;2023-08-31T04:39:14;15.60;77.40
42755;DHT22;28407;51.830;5.684;2023-08-31T04:41:15;15.60;77.40
42755;DHT22;28407;51.830;5.684;2023-08-31T04:43:16;15.60;77.40
42755;DHT22;28407;51.830;5.684;2023-08-31T04:45:17;15.60;77.50
42755;DHT22;28407;51.830;5.684;2023-08-31T04:47:18;15.50;77.40
42755;DHT22;28407;51.830;5.684;2023-08-31T04:49:18;15.50;78.10
42755;DHT22;28407;51.830;5.684;2023-08-31T04:51:34;15.50;77.50
42755;DHT22;28407;51.830;5.684;2023-08-31T04:53:35;15.50;77.50
42755;DHT22;28407;51.830;5.684;2023-08-31T04:55:36;15.50;77.50
42755;DHT22;28407;51.830;5.684;2023-08-31T04:57:38;15.50;77.50
42755;DHT22;28407;51.830;5.684;2023-08-31T04:59:38;15.40;77.50
42755;DHT22;28407;51.830;5.684;2023-08-31T05:01:39;15.40;77.50
42755;DHT22;28407;51.830;5.684;2023-08-31T05:03:40;15.40;77.50
42755;DHT22;28407;51.830;5.684;2023-08-31T05:05:40;15.40;77.60
42755;DHT22;28407;51.830;5.684;2023-08-31T05:07:44;15.40;77.70
42755;DHT22;28407;51.830;5.684;2023-08-31T05:09:45;15.40;77.70
42755;DHT22;28407;51.830;5.684;2023-08-31T05:11:45;15.40;77.70
42755;DHT22;28407;51.830;5.684;2023-08-31T05:13:47;15.40;77.70
42755;DHT22;28407;51.830;5.684;2023-08-31T05:15:48;15.40;77.70
42755;DHT22;28407;51.830;5.684;2023-08-31T05:17:49;15.30;77.60
42755;DHT22;28407;51.830;5.684;2023-08-31T05:19:50;15.30;77.70
42755;DHT22;28407;51.830;5.684;2023-08-31T05:21:50;15.30;77.70
42755;DHT22;28407;51.830;5.684;2023-08-31T05:23:51;15.30;77.70
42755;DHT22;28407;51.830;5.684;2023-08-31T05:25:52;15.30;77.70
42755;DHT22;28407;51.830;5.684;2023-08-31T05:27:52;15.30;77.70
42755;DHT22;28407;51.830;5.684;2023-08-31T05:29:53;15.30;77.70
42755;DHT22;28407;51.830;5.684;2023-08-31T05:31:54;15.30;77.70
42755;DHT22;28407;51.830;5.684;2023-08-31T05:33:55;15.30;77.70
42755;DHT22;28407;51.830;5.684;2023-08-31T05:35:55;15.30;77.70
42755;DHT22;28407;51.830;5.684;2023-08-31T05:37:56;15.30;77.70
42755;DHT22;28407;51.830;5.684;2023-08-31T05:39:57;15.30;77.70
42755;DHT22;28407;51.830;5.684;2023-08-31T05:41:57;15.30;77.60
42755;DHT22;28407;51.830;5.684;2023-08-31T05:43:58;15.30;77.60
42755;DHT22;28407;51.830;5.684;2023-08-31T05:45:59;15.30;77.60
42755;DHT22;28407;51.830;5.684;2023-08-31T05:48:00;15.30;77.60
42755;DHT22;28407;51.830;5.684;2023-08-31T05:50:01;15.30;77.60
42755;DHT22;28407;51.830;5.684;2023-08-31T05:52:02;15.30;77.70
42755;DHT22;28407;51.830;5.684;2023-08-31T05:54:02;15.40;77.70
42755;DHT22;28407;51.830;5.684;2023-08-31T05:56:03;15.30;77.70
42755;DHT22;28407;51.830;5.684;2023-08-31T05:58:04;15.30;77.70
42755;DHT22;28407;51.830;5.684;2023-08-31T06:00:06;15.30;77.80
42755;DHT22;28407;51.830;5.684;2023-08-31T06:02:13;15.30;77.80
42755;DHT22;28407;51.830;5.684;2023-08-31T06:04:13;15.30;77.80
42755;DHT22;28407;51.830;5.684;2023-08-31T06:06:14;15.40;77.90
42755;DHT22;28407;51.830;5.684;2023-08-31T06:08:15;15.40;77.90
42755;DHT22;28407;51.830;5.684;2023-08-31T06:10:16;15.40;77.80
42755;DHT22;28407;51.830;5.684;2023-08-31T06:12:16;15.40;77.70
42755;DHT22;28407;51.830;5.684;2023-08-31T06:14:17;15.50;77.70
42755;DHT22;28407;51.830;5.684;2023-08-31T06:16:18;15.40;77.70
42755;DHT22;28407;51.830;5.684;2023-08-31T06:18:18;15.50;77.70
42755;DHT22;28407;51.830;5.684;2023-08-31T06:20:19;15.40;77.70
42755;DHT22;28407;51.830;5.684;2023-08-31T06:22:20;15.40;77.80
42755;DHT22;28407;51.830;5.684;2023-08-31T06:24:23;15.40;77.90
42755;DHT22;28407;51.830;5.684;2023-08-31T06:26:23;15.40;78.00
42755;DHT22;28407;51.830;5.684;2023-08-31T06:28:24;15.40;78.00
42755;DHT22;28407;51.830;5.684;2023-08-31T06:30:25;15.40;78.00
42755;DHT22;28407;51.830;5.684;2023-08-31T06:32:26;15.40;78.00
42755;DHT22;28407;51.830;5.684;2023-08-31T06:34:27;15.50;78.00
42755;DHT22;28407;51.830;5.684;2023-08-31T06:36:28;15.50;78.00
42755;DHT22;28407;51.830;5.684;2023-08-31T06:38:29;15.60;78.00
42755;DHT22;28407;51.830;5.684;2023-08-31T06:40:30;15.70;78.10
42755;DHT22;28407;51.830;5.684;2023-08-31T06:42:30;15.70;78.00
42755;DHT22;28407;51.830;5.684;2023-08-31T06:44:31;15.70;77.90
42755;DHT22;28407;51.830;5.684;2023-08-31T06:46:32;15.80;78.00
42755;DHT22;28407;51.830;5.684;2023-08-31T06:48:38;15.80;78.00
42755;DHT22;28407;51.830;5.684;2023-08-31T06:50:39;15.90;77.90
42755;DHT22;28407;51.830;5.684;2023-08-31T06:52:39;15.90;77.90
42755;DHT22;28407;51.830;5.684;2023-08-31T06:54:41;15.90;77.90
42755;DHT22;28407;51.830;5.684;2023-08-31T06:56:42;15.90;77.90
42755;DHT22;28407;51.830;5.684;2023-08-31T06:58:43;16.00;77.90
42755;DHT22;28407;51.830;5.684;2023-08-31T07:00:44;16.00;77.90
42755;DHT22;28407;51.830;5.684;2023-08-31T07:02:44;16.00;78.00
42755;DHT22;28407;51.830;5.684;2023-08-31T07:04:45;16.00;78.00
42755;DHT22;28407;51.830;5.684;2023-08-31T07:06:46;16.10;78.10
42755;DHT22;28407;51.830;5.684;2023-08-31T07:08:47;16.10;78.00
42755;DHT22;28407;51.830;5.684;2023-08-31T07:10:50;16.10;78.00
42755;DHT22;28407;51.830;5.684;2023-08-31T07:12:50;16.10;78.60
42755;DHT22;28407;51.830;5.684;2023-08-31T07:14:51;16.20;78.00
42755;DHT22;28407;51.830;5.684;2023-08-31T07:16:52;16.20;78.10
42755;DHT22;28407;51.830;5.684;2023-08-31T07:18:53;16.20;78.10
42755;DHT22;28407;51.830;5.684;2023-08-31T07:20:53;16.20;78.10
42755;DHT22;28407;51.830;5.684;2023-08-31T07:22:54;16.20;78.10
42755;DHT22;28407;51.830;5.684;2023-08-31T07:24:55;16.30;78.20
42755;DHT22;28407;51.830;5.684;2023-08-31T07:26:56;16.30;78.20
42755;DHT22;28407;51.830;5.684;2023-08-31T07:28:56;16.30;78.30
42755;DHT22;28407;51.830;5.684;2023-08-31T07:31:03;16.30;78.30
42755;DHT22;28407;51.830;5.684;2023-08-31T07:33:05;16.30;78.40
42755;DHT22;28407;51.830;5.684;2023-08-31T07:35:07;16.40;78.40
42755;DHT22;28407;51.830;5.684;2023-08-31T07:37:08;16.40;78.40
42755;DHT22;28407;51.830;5.684;2023-08-31T07:39:08;16.40;78.40
42755;DHT22;28407;51.830;5.684;2023-08-31T07:41:09;16.50;78.50
42755;DHT22;28407;51.830;5.684;2023-08-31T07:43:09;16.50;78.50
42755;DHT22;28407;51.830;5.684;2023-08-31T07:45:10;16.50;78.50
42755;DHT22;28407;51.830;5.684;2023-08-31T07:47:11;16.50;78.40
42755;DHT22;28407;51.830;5.684;2023-08-31T07:49:11;16.50;78.40
42755;DHT22;28407;51.830;5.684;2023-08-31T07:51:12;16.50;78.40
42755;DHT22;28407;51.830;5.684;2023-08-31T07:53:13;16.60;78.50
42755;DHT22;28407;51.830;5.684;2023-08-31T07:55:13;16.60;78.50
42755;DHT22;28407;51.830;5.684;2023-08-31T07:57:14;16.60;78.50
42755;DHT22;28407;51.830;5.684;2023-08-31T07:59:16;16.60;78.60
42755;DHT22;28407;51.830;5.684;2023-08-31T08:01:17;16.70;78.60
42755;DHT22;28407;51.830;5.684;2023-08-31T08:03:18;16.70;78.60
42755;DHT22;28407;51.830;5.684;2023-08-31T08:05:19;16.70;78.50
42755;DHT22;28407;51.830;5.684;2023-08-31T08:07:19;16.70;78.60
42755;DHT22;28407;51.830;5.684;2023-08-31T08:09:20;16.80;78.50
42755;DHT22;28407;51.830;5.684;2023-08-31T08:11:22;16.80;78.50
42755;DHT22;28407;51.830;5.684;2023-08-31T08:13:22;16.80;78.40
42755;DHT22;28407;51.830;5.684;2023-08-31T08:15:23;16.90;78.40
42755;DHT22;28407;51.830;5.684;2023-08-31T08:17:24;16.90;78.30
42755;DHT22;28407;51.830;5.684;2023-08-31T08:19:25;16.90;78.30
42755;DHT22;28407;51.830;5.684;2023-08-31T08:21:26;16.90;78.30
42755;DHT22;28407;51.830;5.684;2023-08-31T08:23:26;17.00;78.40
42755;DHT22;28407;51.830;5.684;2023-08-31T08:25:27;17.00;78.30
42755;DHT22;28407;51.830;5.684;2023-08-31T08:27:27;17.00;78.30
42755;DHT22;28407;51.830;5.684;2023-08-31T08:29:28;17.10;78.30
42755;DHT22;28407;51.830;5.684;2023-08-31T08:31:29;17.10;78.30
42755;DHT22;28407;51.830;5.684;2023-08-31T08:33:30;17.10;78.30
42755;DHT22;28407;51.830;5.684;2023-08-31T08:35:31;17.20;78.30
42755;DHT22;28407;51.830;5.684;2023-08-31T08:37:31;17.20;78.10
42755;DHT22;28407;51.830;5.684;2023-08-31T08:39:33;17.30;78.10
42755;DHT22;28407;51.830;5.684;2023-08-31T08:41:35;17.30;78.00
42755;DHT22;28407;51.830;5.684;2023-08-31T08:43:36;17.40;77.80
42755;DHT22;28407;51.830;5.684;2023-08-31T08:45:38;17.40;77.60
42755;DHT22;28407;51.830;5.684;2023-08-31T08:47:44;17.40;77.50
42755;DHT22;28407;51.830;5.684;2023-08-31T08:49:47;17.40;77.40
42755;DHT22;28407;51.830;5.684;2023-08-31T08:51:49;17.40;77.30
42755;DHT22;28407;51.830;5.684;2023-08-31T08:53:52;17.50;77.30
42755;DHT22;28407;51.830;5.684;2023-08-31T08:55:53;17.50;77.10
42755;DHT22;28407;51.830;5.684;2023-08-31T08:57:53;17.50;77.10
42755;DHT22;28407;51.830;5.684;2023-08-31T08:59:54;17.60;77.00
42755;DHT22;28407;51.830;5.684;2023-08-31T09:01:55;17.60;76.90
42755;DHT22;28407;51.830;5.684;2023-08-31T09:03:55;17.60;76.90
42755;DHT22;28407;51.830;5.684;2023-08-31T09:05:56;17.70;76.90
42755;DHT22;28407;51.830;5.684;2023-08-31T09:08:02;17.70;76.70
42755;DHT22;28407;51.830;5.684;2023-08-31T09:10:04;17.70;77.30
42755;DHT22;28407;51.830;5.684;2023-08-31T09:12:08;17.70;76.50
42755;DHT22;28407;51.830;5.684;2023-08-31T09:14:19;17.80;76.60
42755;DHT22;28407;51.830;5.684;2023-08-31T09:16:29;17.80;76.50
42755;DHT22;28407;51.830;5.684;2023-08-31T09:18:31;17.80;76.30
42755;DHT22;28407;51.830;5.684;2023-08-31T09:20:46;17.80;76.20
42755;DHT22;28407;51.830;5.684;2023-08-31T09:22:47;17.90;76.20
42755;DHT22;28407;51.830;5.684;2023-08-31T09:24:50;17.90;76.10
42755;DHT22;28407;51.830;5.684;2023-08-31T09:26:56;18.00;76.00
42755;DHT22;28407;51.830;5.684;2023-08-31T09:28:56;18.00;75.80
42755;DHT22;28407;51.830;5.684;2023-08-31T09:31:07;18.00;75.60
42755;DHT22;28407;51.830;5.684;2023-08-31T09:33:09;18.00;75.50
42755;DHT22;28407;51.830;5.684;2023-08-31T09:35:10;18.00;75.40
42755;DHT22;28407;51.830;5.684;2023-08-31T09:37:11;18.10;75.40
42755;DHT22;28407;51.830;5.684;2023-08-31T09:39:14;18.10;75.30
42755;DHT22;28407;51.830;5.684;2023-08-31T09:41:15;18.20;75.20
42755;DHT22;28407;51.830;5.684;2023-08-31T09:43:19;18.20;75.00
42755;DHT22;28407;51.830;5.684;2023-08-31T09:45:31;18.30;74.90
42755;DHT22;28407;51.830;5.684;2023-08-31T09:47:33;18.30;74.70
42755;DHT22;28407;51.830;5.684;2023-08-31T09:49:34;18.30;74.50
42755;DHT22;28407;51.830;5.684;2023-08-31T09:51:35;18.30;74.40
42755;DHT22;28407;51.830;5.684;2023-08-31T09:53:41;18.30;74.40
42755;DHT22;28407;51.830;5.684;2023-08-31T09:55:43;18.30;75.00
42755;DHT22;28407;51.830;5.684;2023-08-31T09:57:44;18.40;74.40
42755;DHT22;28407;51.830;5.684;2023-08-31T09:59:45;18.40;74.20
42755;DHT22;28407;51.830;5.684;2023-08-31T10:01:46;18.50;74.10
42755;DHT22;28407;51.830;5.684;2023-08-31T10:03:48;18.50;73.90
42755;DHT22;28407;51.830;5.684;2023-08-31T10:05:50;18.60;73.80
42755;DHT22;28407;51.830;5.684;2023-08-31T10:07:51;18.70;73.70
42755;DHT22;28407;51.830;5.684;2023-08-31T10:09:52;18.70;73.50
42755;DHT22;28407;51.830;5.684;2023-08-31T10:11:54;18.80;73.40
42755;DHT22;28407;51.830;5.684;2023-08-31T10:13:55;18.80;73.20
42755;DHT22;28407;51.830;5.684;2023-08-31T10:15:56;18.90;73.10
42755;DHT22;28407;51.830;5.684;2023-08-31T10:17:57;18.90;73.00
42755;DHT22;28407;51.830;5.684;2023-08-31T10:19:58;19.00;72.70
42755;DHT22;28407;51.830;5.684;2023-08-31T10:21:59;19.10;72.50
42755;DHT22;28407;51.830;5.684;2023-08-31T10:24:02;19.10;72.40
42755;DHT22;28407;51.830;5.684;2023-08-31T10:26:03;19.10;72.30
42755;DHT22;28407;51.830;5.684;2023-08-31T10:28:19;19.20;72.30
42755;DHT22;28407;51.830;5.684;2023-08-31T10:32:24;19.30;71.60
42755;DHT22;28407;51.830;5.684;2023-08-31T10:34:35;19.40;71.40
42755;DHT22;28407;51.830;5.684;2023-08-31T10:38:45;19.50;71.00
42755;DHT22;28407;51.830;5.684;2023-08-31T10:43:15;19.50;70.50
42755;DHT22;28407;51.830;5.684;2023-08-31T10:45:22;19.50;70.50
42755;DHT22;28407;51.830;5.684;2023-08-31T10:47:42;19.50;70.50
42755;DHT22;28407;51.830;5.684;2023-08-31T10:49:50;19.40;70.60
42755;DHT22;28407;51.830;5.684;2023-08-31T10:51:56;19.40;70.90
42755;DHT22;28407;51.830;5.684;2023-08-31T10:54:20;19.30;71.00
42755;DHT22;28407;51.830;5.684;2023-08-31T10:56:21;19.30;71.00
42755;DHT22;28407;51.830;5.684;2023-08-31T10:58:31;19.30;71.20
42755;DHT22;28407;51.830;5.684;2023-08-31T11:00:55;19.20;71.40
42755;DHT22;28407;51.830;5.684;2023-08-31T11:02:57;19.20;71.50
42755;DHT22;28407;51.830;5.684;2023-08-31T11:05:13;19.20;71.60
42755;DHT22;28407;51.830;5.684;2023-08-31T11:07:24;19.20;71.90
42755;DHT22;28407;51.830;5.684;2023-08-31T11:09:24;19.10;72.00
42755;DHT22;28407;51.830;5.684;2023-08-31T11:11:25;19.10;72.10
42755;DHT22;28407;51.830;5.684;2023-08-31T11:13:26;19.00;72.20
42755;DHT22;28407;51.830;5.684;2023-08-31T11:15:27;19.00;72.30
42755;DHT22;28407;51.830;5.684;2023-08-31T11:17:30;19.00;72.50
42755;DHT22;28407;51.830;5.684;2023-08-31T11:19:35;18.90;72.50
42755;DHT22;28407;51.830;5.684;2023-08-31T11:21:37;18.90;73.10
42755;DHT22;28407;51.830;5.684;2023-08-31T11:23:38;18.80;72.40
42755;DHT22;28407;51.830;5.684;2023-08-31T11:25:38;18.80;72.50
42755;DHT22;28407;51.830;5.684;2023-08-31T11:27:39;18.70;72.50
42755;DHT22;28407;51.830;5.684;2023-08-31T11:29:44;18.70;72.50
42755;DHT22;28407;51.830;5.684;2023-08-31T11:31:45;18.60;72.50
42755;DHT22;28407;51.830;5.684;2023-08-31T11:33:47;18.60;72.60
42755;DHT22;28407;51.830;5.684;2023-08-31T11:35:47;18.70;72.60
42755;DHT22;28407;51.830;5.684;2023-08-31T11:37:55;18.70;72.50
42755;DHT22;28407;51.830;5.684;2023-08-31T11:39:58;18.80;72.50
42755;DHT22;28407;51.830;5.684;2023-08-31T11:42:02;18.90;72.20
42755;DHT22;28407;51.830;5.684;2023-08-31T11:44:06;18.90;71.90
42755;DHT22;28407;51.830;5.684;2023-08-31T11:46:08;19.00;71.80
42755;DHT22;28407;51.830;5.684;2023-08-31T11:48:09;19.00;71.60
42755;DHT22;28407;51.830;5.684;2023-08-31T11:50:11;19.00;71.40
42755;DHT22;28407;51.830;5.684;2023-08-31T11:52:13;19.10;71.40
42755;DHT22;28407;51.830;5.684;2023-08-31T11:54:14;19.00;71.40
42755;DHT22;28407;51.830;5.684;2023-08-31T11:56:16;19.10;71.40
42755;DHT22;28407;51.830;5.684;2023-08-31T11:58:17;19.00;71.30
42755;DHT22;28407;51.830;5.684;2023-08-31T12:00:22;19.10;71.40
42755;DHT22;28407;51.830;5.684;2023-08-31T12:02:23;19.10;71.40
42755;DHT22;28407;51.830;5.684;2023-08-31T12:04:24;19.10;71.40
42755;DHT22;28407;51.830;5.684;2023-08-31T12:06:25;19.20;71.40
42755;DHT22;28407;51.830;5.684;2023-08-31T12:08:26;19.30;71.30
42755;DHT22;28407;51.830;5.684;2023-08-31T12:10:27;19.40;71.20
42755;DHT22;28407;51.830;5.684;2023-08-31T12:12:28;19.50;71.10
42755;DHT22;28407;51.830;5.684;2023-08-31T12:14:30;19.60;71.00
42755;DHT22;28407;51.830;5.684;2023-08-31T12:16:34;19.70;70.90
42755;DHT22;28407;51.830;5.684;2023-08-31T12:18:37;19.70;70.90
42755;DHT22;28407;51.830;5.684;2023-08-31T12:20:55;19.70;70.80
42755;DHT22;28407;51.830;5.684;2023-08-31T12:22:57;19.80;71.00
42755;DHT22;28407;51.830;5.684;2023-08-31T12:24:58;19.80;70.90
42755;DHT22;28407;51.830;5.684;2023-08-31T12:26:58;19.90;70.80
42755;DHT22;28407;51.830;5.684;2023-08-31T12:28:59;20.00;71.50
42755;DHT22;28407;51.830;5.684;2023-08-31T12:30:59;20.10;70.70
42755;DHT22;28407;51.830;5.684;2023-08-31T12:33:00;20.20;70.60
42755;DHT22;28407;51.830;5.684;2023-08-31T12:35:01;20.20;70.40
42755;DHT22;28407;51.830;5.684;2023-08-31T12:37:03;20.30;70.40
42755;DHT22;28407;51.830;5.684;2023-08-31T12:39:05;20.30;70.50
42755;DHT22;28407;51.830;5.684;2023-08-31T12:41:07;20.30;70.40
42755;DHT22;28407;51.830;5.684;2023-08-31T12:43:09;20.40;70.40
42755;DHT22;28407;51.830;5.684;2023-08-31T12:45:10;20.40;70.30
42755;DHT22;28407;51.830;5.684;2023-08-31T12:47:11;20.50;70.90
42755;DHT22;28407;51.830;5.684;2023-08-31T12:49:12;20.60;70.30
42755;DHT22;28407;51.830;5.684;2023-08-31T12:51:12;20.60;70.40
42755;DHT22;28407;51.830;5.684;2023-08-31T12:53:13;20.70;70.10
42755;DHT22;28407;51.830;5.684;2023-08-31T12:55:15;20.80;70.00
42755;DHT22;28407;51.830;5.684;2023-08-31T12:57:19;20.90;69.70
42755;DHT22;28407;51.830;5.684;2023-08-31T12:59:20;21.00;69.40
42755;DHT22;28407;51.830;5.684;2023-08-31T13:01:21;21.10;69.10